createdAt,value
2023-03-21T00:00:04.000Z,6.56
2023-03-21T00:05:04.000Z,6.53
2023-03-21T00:10:04.000Z,6.46
2023-03-21T00:15:04.000Z,6.35
2023-03-21T00:20:04.000Z,6.24
2023-03-21T00:25:04.000Z,6.15
2023-03-21T00:30:04.000Z,6.07
2023-03-21T00:35:04.000Z,6.01
2023-03-21T00:40:04.000Z,5.93
2023-03-21T00:45:04.000Z,5.89
2023-03-21T00:50:04.000Z,5.82
2023-03-21T00:55:04.000Z,5.68
2023-03-21T01:00:05.000Z,5.65
2023-03-21T01:05:04.000Z,5.64
2023-03-21T01:10:04.000Z,5.57
2023-03-21T01:15:04.000Z,5.57
2023-03-21T01:20:04.000Z,5.53
2023-03-21T01:25:04.000Z,5.51
2023-03-21T01:30:05.000Z,5.55
2023-03-21T01:35:04.000Z,5.60
2023-03-21T01:40:04.000Z,5.57
2023-03-21T01:45:04.000Z,5.46
2023-03-21T01:50:04.000Z,5.39
2023-03-21T01:55:04.000Z,5.35
2023-03-21T02:00:04.000Z,5.31
2023-03-21T02:05:04.000Z,5.27
2023-03-21T02:10:04.000Z,5.22
2023-03-21T02:15:05.000Z,5.22
2023-03-21T02:20:04.000Z,5.16
2023-03-21T02:25:04.000Z,5.08
2023-03-21T02:30:04.000Z,5.03
2023-03-21T02:35:04.000Z,4.97
2023-03-21T02:40:04.000Z,4.97
2023-03-21T02:45:05.000Z,4.95
2023-03-21T02:50:04.000Z,4.90
2023-03-21T02:55:04.000Z,4.82
2023-03-21T03:00:05.000Z,4.77
2023-03-21T03:05:04.000Z,4.71
2023-03-21T03:10:04.000Z,4.65
2023-03-21T03:15:04.000Z,4.60
2023-03-21T03:20:05.000Z,4.58
2023-03-21T03:25:04.000Z,4.50
2023-03-21T03:30:04.000Z,4.43
2023-03-21T03:35:04.000Z,4.37
2023-03-21T03:40:04.000Z,4.33
2023-03-21T03:45:04.000Z,4.34
2023-03-21T03:50:04.000Z,4.27
2023-03-21T03:55:04.000Z,4.27
2023-03-21T04:00:04.000Z,4.27
2023-03-21T04:05:04.000Z,4.26
2023-03-21T04:10:05.000Z,4.23
2023-03-21T04:15:04.000Z,4.16
2023-03-21T04:20:04.000Z,4.08
2023-03-21T04:25:04.000Z,4.08
2023-03-21T04:30:04.000Z,4.06
2023-03-21T04:35:05.000Z,4.08
2023-03-21T04:40:05.000Z,4.05
2023-03-21T04:45:05.000Z,4.05
2023-03-21T04:50:04.000Z,4.13
2023-03-21T04:55:04.000Z,4.13
2023-03-21T05:00:05.000Z,4.07
2023-03-21T05:05:05.000Z,3.99
2023-03-21T05:10:04.000Z,3.97
2023-03-21T05:15:04.000Z,3.89
2023-03-21T05:20:04.000Z,3.86
2023-03-21T05:25:04.000Z,3.83
2023-03-21T05:30:04.000Z,3.83
2023-03-21T05:35:04.000Z,3.83
2023-03-21T05:40:05.000Z,3.82
2023-03-21T05:45:04.000Z,3.85
2023-03-21T05:50:05.000Z,3.87
2023-03-21T05:55:05.000Z,3.88
2023-03-21T06:00:04.000Z,4.01
2023-03-21T06:05:05.000Z,4.05
2023-03-21T06:10:05.000Z,4.17
2023-03-21T06:15:05.000Z,4.21
2023-03-21T06:20:04.000Z,4.37
2023-03-21T06:25:05.000Z,4.49
2023-03-21T06:30:06.000Z,4.69
2023-03-21T06:35:05.000Z,4.82
2023-03-21T06:40:05.000Z,4.97
2023-03-21T06:45:05.000Z,5.19
2023-03-21T06:50:05.000Z,5.47
2023-03-21T06:55:05.000Z,5.71
2023-03-21T07:00:06.000Z,5.99
2023-03-21T07:05:04.000Z,6.27
2023-03-21T07:10:05.000Z,6.61
2023-03-21T07:15:06.000Z,6.88
2023-03-21T07:20:06.000Z,7.09
2023-03-21T07:25:05.000Z,7.29
2023-03-21T07:30:05.000Z,7.86
2023-03-21T07:35:05.000Z,8.95
2023-03-21T07:40:05.000Z,9.35
2023-03-21T07:45:05.000Z,9.67
2023-03-21T07:50:04.000Z,9.69
2023-03-21T07:55:05.000Z,9.49
2023-03-21T08:00:05.000Z,9.47
2023-03-21T08:05:06.000Z,9.75
2023-03-21T08:10:05.000Z,9.50
2023-03-21T08:15:05.000Z,9.26
2023-03-21T08:20:05.000Z,9.33
2023-03-21T08:25:05.000Z,9.44
2023-03-21T08:30:05.000Z,9.42
2023-03-21T08:35:05.000Z,9.78
2023-03-21T08:40:05.000Z,10.12
2023-03-21T08:45:05.000Z,10.36
2023-03-21T08:50:05.000Z,10.58
2023-03-21T08:55:05.000Z,10.88
2023-03-21T09:00:06.000Z,11.07
2023-03-21T09:05:05.000Z,11.43
2023-03-21T09:10:05.000Z,11.58
2023-03-21T09:15:05.000Z,11.64
2023-03-21T09:20:05.000Z,11.97
2023-03-21T09:25:04.000Z,12.15
2023-03-21T09:30:05.000Z,12.34
2023-03-21T09:35:05.000Z,12.55
2023-03-21T09:40:05.000Z,12.69
2023-03-21T09:45:05.000Z,13.17
2023-03-21T09:50:05.000Z,13.49
2023-03-21T09:55:05.000Z,13.18
2023-03-21T10:00:05.000Z,13.09
2023-03-21T10:05:05.000Z,13.16
2023-03-21T10:10:05.000Z,13.49
2023-03-21T10:15:05.000Z,13.63
2023-03-21T10:20:05.000Z,13.86
2023-03-21T10:25:05.000Z,14.49
2023-03-21T10:30:05.000Z,14.60
2023-03-21T10:35:04.000Z,14.40
2023-03-21T10:40:05.000Z,14.59
2023-03-21T10:45:05.000Z,14.84
2023-03-21T10:50:05.000Z,14.98
2023-03-21T10:55:05.000Z,15.13
2023-03-21T11:00:07.000Z,15.33
2023-03-21T11:05:04.000Z,15.28
2023-03-21T11:10:05.000Z,15.38
2023-03-21T11:15:05.000Z,15.06
2023-03-21T11:20:06.000Z,15.45
2023-03-21T11:25:05.000Z,15.71
2023-03-21T11:30:05.000Z,15.59
2023-03-21T11:35:00.000Z,15.48
2023-03-21T11:40:01.000Z,15.34
2023-03-21T11:45:00.000Z,15.49
2023-03-21T11:50:01.000Z,15.53
2023-03-21T11:55:01.000Z,15.53
2023-03-21T12:00:01.000Z,15.65
2023-03-21T12:05:00.000Z,15.65
2023-03-21T12:10:00.000Z,15.41
2023-03-21T12:15:00.000Z,15.37
2023-03-21T12:20:01.000Z,15.38
2023-03-21T12:25:00.000Z,15.52
2023-03-21T12:30:01.000Z,15.48
2023-03-21T12:35:00.000Z,15.59
2023-03-21T12:40:00.000Z,15.74
2023-03-21T12:45:00.000Z,15.76
2023-03-21T12:50:00.000Z,15.85
2023-03-21T12:55:01.000Z,15.92
2023-03-21T13:00:01.000Z,15.82
2023-03-21T13:05:01.000Z,15.89
2023-03-21T13:10:00.000Z,16.02
2023-03-21T13:15:01.000Z,16.00
2023-03-21T13:20:00.000Z,16.10
2023-03-21T13:25:00.000Z,16.07
2023-03-21T13:30:01.000Z,16.15
2023-03-21T13:35:01.000Z,16.15
2023-03-21T13:40:00.000Z,16.34
2023-03-21T13:45:00.000Z,16.58
2023-03-21T13:50:01.000Z,16.64
2023-03-21T13:55:00.000Z,16.62
2023-03-21T14:00:00.000Z,16.65
2023-03-21T14:05:01.000Z,16.58
2023-03-21T14:10:01.000Z,16.56
2023-03-21T14:15:01.000Z,16.51
2023-03-21T14:20:00.000Z,16.59
2023-03-21T14:25:01.000Z,16.48
2023-03-21T14:30:00.000Z,16.49
2023-03-21T14:35:00.000Z,16.52
2023-03-21T14:40:01.000Z,16.57
2023-03-21T14:45:01.000Z,16.52
2023-03-21T14:50:00.000Z,16.47
2023-03-21T14:55:01.000Z,16.50
2023-03-21T15:00:01.000Z,16.59
2023-03-21T15:05:00.000Z,16.46
2023-03-21T15:10:00.000Z,16.32
2023-03-21T15:15:01.000Z,16.19
2023-03-21T15:20:00.000Z,15.99
2023-03-21T15:25:00.000Z,15.90
2023-03-21T15:30:01.000Z,15.82
2023-03-21T15:35:00.000Z,15.74
2023-03-21T15:40:01.000Z,15.68
2023-03-21T15:45:00.000Z,15.62
2023-03-21T15:50:00.000Z,15.55
2023-03-21T15:55:00.000Z,15.49
2023-03-21T16:00:00.000Z,15.43
2023-03-21T16:05:01.000Z,15.33
2023-03-21T16:10:00.000Z,15.26
2023-03-21T16:15:00.000Z,15.17
2023-03-21T16:20:01.000Z,15.10
2023-03-21T16:25:00.000Z,15.02
2023-03-21T16:30:01.000Z,14.89
2023-03-21T16:35:00.000Z,14.87
2023-03-21T16:40:00.000Z,14.87
2023-03-21T16:45:00.000Z,14.78
2023-03-21T16:50:00.000Z,14.67
2023-03-21T16:55:00.000Z,14.56
2023-03-21T17:00:01.000Z,14.44
2023-03-21T17:05:00.000Z,14.34
2023-03-21T17:10:00.000Z,14.20
2023-03-21T17:15:01.000Z,14.01
2023-03-21T17:20:01.000Z,13.85
2023-03-21T17:25:00.000Z,13.80
2023-03-21T17:30:01.000Z,13.71
2023-03-21T17:35:00.000Z,13.61
2023-03-21T17:40:01.000Z,13.38
2023-03-21T17:45:01.000Z,13.15
2023-03-21T17:50:01.000Z,13.03
2023-03-21T17:55:00.000Z,12.94
2023-03-21T18:00:01.000Z,12.85
2023-03-21T18:05:01.000Z,12.73
2023-03-21T18:10:01.000Z,12.60
2023-03-21T18:15:01.000Z,12.46
2023-03-21T18:20:01.000Z,12.42
2023-03-21T18:25:01.000Z,12.28
2023-03-21T18:30:01.000Z,12.12
2023-03-21T18:35:01.000Z,11.93
2023-03-21T18:40:01.000Z,11.91
2023-03-21T18:45:01.000Z,11.84
2023-03-21T18:50:01.000Z,11.79
2023-03-21T18:55:01.000Z,11.66
2023-03-21T19:00:01.000Z,11.61
2023-03-21T19:05:01.000Z,11.58
2023-03-21T19:10:01.000Z,11.48
2023-03-21T19:15:01.000Z,11.33
2023-03-21T19:20:01.000Z,11.21
2023-03-21T19:25:01.000Z,11.11
2023-03-21T19:30:01.000Z,11.07
2023-03-21T19:35:01.000Z,11.05
2023-03-21T19:40:01.000Z,11.05
2023-03-21T19:45:01.000Z,10.96
2023-03-21T19:50:01.000Z,10.81
2023-03-21T19:55:01.000Z,10.73
2023-03-21T20:00:01.000Z,10.71
2023-03-21T20:05:01.000Z,10.72
2023-03-21T20:10:01.000Z,10.69
2023-03-21T20:15:01.000Z,10.65
2023-03-21T20:20:01.000Z,10.58
2023-03-21T20:25:01.000Z,10.58
2023-03-21T20:30:01.000Z,10.54
2023-03-21T20:35:01.000Z,10.49
2023-03-21T20:40:01.000Z,10.42
2023-03-21T20:45:01.000Z,10.31
2023-03-21T20:50:01.000Z,10.27
2023-03-21T20:55:01.000Z,10.21
2023-03-21T21:00:01.000Z,10.15
2023-03-21T21:05:01.000Z,10.18
2023-03-21T21:10:01.000Z,10.13
2023-03-21T21:15:01.000Z,10.13
2023-03-21T21:20:01.000Z,10.13
2023-03-21T21:25:01.000Z,10.18
2023-03-21T21:30:01.000Z,10.21
2023-03-21T21:35:01.000Z,10.27
2023-03-21T21:40:01.000Z,10.27
2023-03-21T21:45:01.000Z,10.27
2023-03-21T21:50:01.000Z,10.27
2023-03-21T21:55:01.000Z,10.28
2023-03-21T22:00:01.000Z,10.24
2023-03-21T22:05:01.000Z,10.18
2023-03-21T22:10:01.000Z,10.11
2023-03-21T22:15:01.000Z,10.07
2023-03-21T22:20:01.000Z,10.06
2023-03-21T22:25:01.000Z,10.04
2023-03-21T22:30:01.000Z,10.04
2023-03-21T22:35:01.000Z,10.07
2023-03-21T22:40:01.000Z,10.05
2023-03-21T22:45:01.000Z,10.06
2023-03-21T22:50:01.000Z,10.05
2023-03-21T22:55:01.000Z,10.01
2023-03-21T23:00:03.000Z,9.97
2023-03-21T23:05:02.000Z,9.97
2023-03-21T23:10:01.000Z,10.01
2023-03-21T23:15:01.000Z,10.05
2023-03-21T23:20:01.000Z,10.04
2023-03-21T23:25:01.000Z,10.12
2023-03-21T23:30:01.000Z,10.20
2023-03-21T23:35:01.000Z,10.18
2023-03-21T23:40:01.000Z,10.15
2023-03-21T23:45:01.000Z,10.13
2023-03-21T23:50:01.000Z,10.09
2023-03-21T23:55:01.000Z,10.07
